Time;durP1;ratioP1;P1;durP2;ratioP2;P2;SDS_P1;SDS_P2;PMS_P1;PMS_P2;Temp;Humidity;BMP_temperature;BMP_pressure;BME280_temperature;BME280_humidity;BME280_pressure;Samples;Min_cycle;Max_cycle;Signal;HPM_P1;HPM_P2
2021/03/28 00:00:32;;;;;;;31.35;17.42;;;;;;;5.37;84.84;101017.77;1790638;79;21758;-78
2021/03/28 00:04:05;;;;;;;27.40;16.07;;;;;;;5.38;84.83;101008.62;1781458;80;21306;-78
2021/03/28 00:07:11;;;;;;;27.90;16.90;;;;;;;5.37;84.67;101005.55;1781499;80;21294;-78
2021/03/28 00:10:21;;;;;;;34.38;16.62;;;;;;;5.31;84.37;101011.46;1781413;80;21868;-78
2021/03/28 00:13:34;;;;;;;26.57;16.02;;;;;;;5.26;84.28;101006.91;1777106;80;21203;-78
2021/03/28 00:16:41;;;;;;;31.23;16.50;;;;;;;5.20;84.14;101012.84;1761657;80;21156;-78
2021/03/28 00:19:46;;;;;;;26.50;14.98;;;;;;;5.15;84.09;101009.64;1761792;80;21252;-78
2021/03/28 00:23:25;;;;;;;29.85;16.35;;;;;;;5.09;84.09;101005.59;1780361;80;21144;-78
2021/03/28 00:26:43;;;;;;;25.72;15.65;;;;;;;5.09;83.93;101013.72;1781427;80;21151;-78
2021/03/28 00:30:15;;;;;;;26.95;16.07;;;;;;;5.05;83.68;101008.66;1781389;80;21470;-78
2021/03/28 00:33:25;;;;;;;31.25;17.23;;;;;;;5.02;83.44;101006.19;1781461;80;21826;-78
2021/03/28 00:36:36;;;;;;;27.87;16.15;;;;;;;4.97;83.25;101009.27;1781568;80;21291;-78
2021/03/28 00:40:04;;;;;;;24.82;15.85;;;;;;;4.92;83.11;101005.21;1762839;80;21263;-78
2021/03/28 00:43:26;;;;;;;27.60;15.25;;;;;;;4.82;82.68;101015.44;1781406;80;21314;-78
2021/03/28 00:46:42;;;;;;;22.30;15.15;;;;;;;4.66;82.41;101021.72;1779733;80;21720;-78
2021/03/28 00:49:48;;;;;;;24.72;15.40;;;;;;;4.55;82.74;101013.55;1781388;80;21864;-78
2021/03/28 00:53:03;;;;;;;26.50;15.65;;;;;;;4.50;82.97;101015.76;1781371;80;21302;-78
2021/03/28 00:56:29;;;;;;;23.40;13.75;;;;;;;4.46;82.96;101016.97;1781412;80;21797;-78
2021/03/28 00:59:46;;;;;;;20.68;13.35;;;;;;;4.39;82.78;101016.61;1781469;80;21267;-78
2021/03/28 01:03:13;;;;;;;24.63;15.55;;;;;;;4.35;82.69;101015.97;1781282;80;21175;-78
2021/03/28 01:06:35;;;;;;;30.82;15.55;;;;;;;4.33;82.47;101019.30;1788361;79;21748;-78
2021/03/28 01:10:02;;;;;;;25.35;14.23;;;;;;;4.22;81.79;101025.16;1789741;79;21147;-78
2021/03/28 01:13:56;;;;;;;30.85;14.43;;;;;;;4.08;81.78;101019.45;1788286;79;21741;-78
2021/03/28 01:17:30;;;;;;;23.62;14.13;;;;;;;4.00;82.13;101019.16;1789979;80;21309;-78
2021/03/28 01:21:00;;;;;;;25.80;15.08;;;;;;;3.97;82.56;101016.22;1788399;79;21160;-78
2021/03/28 01:24:28;;;;;;;31.05;14.58;;;;;;;4.00;83.02;101017.81;1785215;80;21278;-79
2021/03/28 01:28:01;;;;;;;19.77;13.70;;;;;;;4.03;82.98;101009.47;1789989;80;21215;-78
2021/03/28 01:31:10;;;;;;;25.27;15.30;;;;;;;4.01;82.57;101011.44;1789957;80;21295;-78
2021/03/28 01:34:25;;;;;;;23.75;14.00;;;;;;;3.96;82.16;101011.79;1790145;80;21297;-78
2021/03/28 01:37:37;;;;;;;23.47;14.20;;;;;;;3.91;82.07;101006.36;1789992;80;21353;-78
2021/03/28 01:40:57;;;;;;;26.05;14.73;;;;;;;3.83;81.80;101009.14;1788391;79;21143;-78
2021/03/28 01:44:24;;;;;;;23.40;14.63;;;;;;;3.74;81.69;101008.97;1786454;80;21772;-78
2021/03/28 01:48:08;;;;;;;25.17;14.05;;;;;;;3.67;81.78;101011.75;1789993;80;21298;-78
2021/03/28 01:51:39;;;;;;;27.15;14.63;;;;;;;3.56;81.68;101016.62;1787980;79;21164;-78
2021/03/28 01:55:09;;;;;;;26.62;14.33;;;;;;;3.47;82.12;101015.95;1790113;80;21764;-79
2021/03/28 01:58:49;;;;;;;25.92;14.47;;;;;;;3.38;82.34;101017.48;1789989;80;21333;-79
2021/03/28 02:02:16;;;;;;;25.48;14.95;;;;;;;3.31;82.64;101019.79;1790050;80;21824;-79
2021/03/28 02:05:42;;;;;;;22.22;14.70;;;;;;;3.25;82.67;101018.90;1813134;79;21157;-79
2021/03/28 02:09:07;;;;;;;30.25;16.40;;;;;;;3.18;82.76;101029.77;1812962;79;21275;-79
2021/03/28 02:12:37;;;;;;;31.37;17.42;;;;;;;3.15;83.09;101025.06;1812766;79;21173;-79
2021/03/28 02:16:00;;;;;;;30.10;16.70;;;;;;;3.16;83.76;101018.70;1811366;79;21153;-79
2021/03/28 02:19:33;;;;;;;32.35;18.15;;;;;;;3.20;84.12;101021.08;1813129;79;21283;-79
2021/03/28 02:22:56;;;;;;;31.55;16.75;;;;;;;3.25;84.26;101018.03;1812517;79;21188;-78
2021/03/28 02:26:27;;;;;;;31.00;16.70;;;;;;;3.29;84.28;101021.75;1813130;79;21260;-79
2021/03/28 02:29:54;;;;;;;31.02;17.42;;;;;;;3.32;84.18;101021.52;1813151;79;21283;-78
2021/03/28 02:33:38;;;;;;;34.08;19.70;;;;;;;3.36;84.30;101016.75;1812230;79;21175;-79
2021/03/28 02:36:52;;;;;;;34.03;17.87;;;;;;;3.42;84.24;101023.54;1813143;79;21259;-78
2021/03/28 02:40:33;;;;;;;26.40;17.25;;;;;;;3.42;84.09;101018.98;1809806;79;21284;-78
2021/03/28 02:44:19;;;;;;;31.95;17.42;;;;;;;3.42;84.04;101024.41;1813027;79;21892;-78
2021/03/28 02:47:57;;;;;;;30.00;17.77;;;;;;;3.42;84.16;101022.19;1813106;79;21164;-78
2021/03/28 02:51:56;;;;;;;28.07;16.97;;;;;;;3.44;84.28;101029.72;1812995;79;21141;-79
2021/03/28 02:55:11;;;;;;;26.10;15.65;;;;;;;3.45;84.25;101030.09;1812910;79;21168;-79
2021/03/28 02:58:48;;;;;;;28.98;17.25;;;;;;;3.47;84.28;101032.17;1813028;79;21315;-78
2021/03/28 03:02:33;;;;;;;25.40;15.95;;;;;;;3.48;84.24;101032.55;1813009;79;21334;-78
2021/03/28 03:06:32;;;;;;;30.43;18.45;;;;;;;3.46;83.89;101037.22;1812507;79;21338;-78
2021/03/28 03:10:21;;;;;;;27.50;16.17;;;;;;;3.35;83.16;101041.20;1813301;79;21239;-78
2021/03/28 03:13:55;;;;;;;41.83;20.15;;;;;;;3.14;82.92;101053.94;1813071;79;21749;-78
2021/03/28 03:17:41;;;;;;;33.23;18.05;;;;;;;2.99;83.17;101054.55;1813017;79;21168;-78
2021/03/28 03:21:15;;;;;;;35.23;18.82;;;;;;;2.90;83.23;101053.86;1813095;79;21706;-78
2021/03/28 03:24:45;;;;;;;38.70;21.93;;;;;;;2.83;83.53;101055.77;1812937;79;21837;-78
2021/03/28 03:28:32;;;;;;;36.33;21.68;;;;;;;2.83;83.94;101062.53;1799428;79;21805;-78
2021/03/28 03:31:58;;;;;;;39.33;19.60;;;;;;;2.76;83.28;101071.05;1812857;79;21287;-78
2021/03/28 03:35:18;;;;;;;35.60;20.00;;;;;;;2.58;82.38;101072.33;1812973;79;21145;-78
2021/03/28 03:39:05;;;;;;;39.10;20.17;;;;;;;2.41;82.25;101072.64;1812105;79;21725;-78
2021/03/28 03:42:34;;;;;;;39.08;21.15;;;;;;;2.30;82.47;101085.02;1812594;79;21303;-78
2021/03/28 03:46:01;;;;;;;46.15;23.02;;;;;;;2.22;82.76;101091.45;1813002;79;21153;-78
2021/03/28 03:49:36;;;;;;;107.52;46.53;;;;;;;2.19;83.11;101088.95;1799630;79;21306;-78
2021/03/28 03:53:05;;;;;;;178.07;64.97;;;;;;;2.21;83.49;101096.92;1812101;79;21163;-78
2021/03/28 03:56:30;;;;;;;107.47;46.70;;;;;;;2.28;84.24;101095.56;1812225;79;21180;-78
2021/03/28 03:59:54;;;;;;;78.65;37.83;;;;;;;2.37;84.56;101096.28;1813042;79;21315;-78
2021/03/28 04:03:09;;;;;;;41.92;23.05;;;;;;;2.45;84.43;101098.47;1812121;79;21836;-78
2021/03/28 04:06:35;;;;;;;57.38;30.17;;;;;;;2.51;84.50;101095.34;1807307;79;21192;-78
2021/03/28 04:09:52;;;;;;;58.68;32.55;;;;;;;2.64;85.13;101101.63;1809560;79;21710;-78
2021/03/28 04:13:43;;;;;;;34.92;20.72;;;;;;;2.78;85.06;101105.59;1795842;79;21153;-78
2021/03/28 04:16:54;;;;;;;28.77;17.92;;;;;;;2.88;84.81;101111.70;1809564;79;21284;-78
2021/03/28 04:20:21;;;;;;;27.13;17.48;;;;;;;2.97;85.05;101115.11;1809569;79;21736;-78
2021/03/28 04:23:51;;;;;;;29.77;17.10;;;;;;;3.04;85.20;101115.05;1808496;79;21204;-78
2021/03/28 04:27:18;;;;;;;27.40;17.48;;;;;;;3.08;85.29;101121.97;1809574;79;21275;-78
2021/03/28 04:30:57;;;;;;;29.72;18.02;;;;;;;3.21;85.61;101117.42;1809748;79;21145;-78
2021/03/28 04:34:24;;;;;;;26.85;17.92;;;;;;;3.41;85.86;101114.63;1809719;79;21149;-78
2021/03/28 04:38:07;;;;;;;29.37;18.55;;;;;;;3.61;85.67;101115.02;1806327;79;21299;-78
2021/03/28 04:41:54;;;;;;;27.22;17.67;;;;;;;3.79;85.38;101118.59;1809643;79;21322;-79
2021/03/28 04:45:47;;;;;;;23.92;15.63;;;;;;;3.98;85.02;101119.45;1809600;79;21264;-79
2021/03/28 04:49:30;;;;;;;28.15;16.77;;;;;;;4.17;84.61;101121.64;1809705;79;21834;-79
2021/03/28 04:53:15;;;;;;;29.90;17.60;;;;;;;4.27;84.28;101118.61;1809632;79;21798;-78
2021/03/28 04:57:14;;;;;;;34.85;20.05;;;;;;;4.42;84.17;101115.71;1809598;79;21794;-79
2021/03/28 05:00:35;;;;;;;32.95;18.27;;;;;;;4.56;83.73;101119.58;1809723;79;21152;-79
2021/03/28 05:04:09;;;;;;;34.10;19.80;;;;;;;4.75;83.49;101120.38;1809664;79;21196;-79
2021/03/28 05:07:40;;;;;;;37.38;20.57;;;;;;;4.92;83.15;101113.66;1790083;79;21824;-79
2021/03/28 05:11:12;;;;;;;29.57;16.93;;;;;;;5.02;82.52;101113.30;1789982;80;21148;-79
2021/03/28 05:15:02;;;;;;;32.05;18.57;;;;;;;5.05;82.27;101117.13;1789999;80;21322;-79
2021/03/28 05:18:41;;;;;;;30.17;18.92;;;;;;;5.10;82.43;101119.84;1789995;80;21298;-79
2021/03/28 05:22:18;;;;;;;34.80;18.60;;;;;;;5.24;82.68;101121.96;1790147;80;21289;-79
2021/03/28 05:25:42;;;;;;;30.80;19.77;;;;;;;5.43;82.60;101125.42;1764868;80;21701;-79
2021/03/28 05:28:58;;;;;;;36.85;20.82;;;;;;;5.61;82.52;101141.58;1789970;80;21290;-80
2021/03/28 05:32:44;;;;;;;28.85;16.05;;;;;;;5.69;82.61;101136.36;1788452;79;21187;-80
2021/03/28 05:36:24;;;;;;;27.22;14.45;;;;;;;5.82;82.48;101149.31;1790037;80;21318;-79
2021/03/28 05:40:09;;;;;;;29.12;16.93;;;;;;;5.96;82.46;101154.15;1790022;80;21151;-79
2021/03/28 05:43:44;;;;;;;28.07;16.57;;;;;;;6.09;82.65;101153.52;1789790;80;21724;-79
2021/03/28 05:47:15;;;;;;;29.67;16.93;;;;;;;6.23;81.94;101164.09;1790018;80;21800;-79
2021/03/28 05:50:50;;;;;;;27.95;15.03;;;;;;;6.42;81.34;101159.84;1790031;80;21156;-79
2021/03/28 05:54:30;;;;;;;27.55;16.30;;;;;;;6.57;80.41;101155.82;1789981;80;21310;-79
2021/03/28 05:57:58;;;;;;;24.80;16.95;;;;;;;6.76;80.03;101160.55;1789882;80;21140;-79
2021/03/28 06:01:35;;;;;;;28.20;17.05;;;;;;;6.89;79.66;101163.95;1789994;80;21326;-79
2021/03/28 06:05:00;;;;;;;19.02;13.28;;;;;;;7.01;79.52;101159.30;1790007;80;21262;-79
2021/03/28 06:08:21;;;;;;;20.95;14.15;;;;;;;7.16;78.44;101175.67;1782121;79;21827;-79
2021/03/28 06:12:02;;;;;;;;;;;;;;;7.23;77.88;101171.41;1783864;80;21861;-79
2021/03/28 06:15:50;;;;;;;23.05;14.80;;;;;;;7.33;77.33;101179.63;1779864;80;20192;-79
2021/03/28 06:19:44;;;;;;;19.70;14.07;;;;;;;7.43;76.89;101179.19;1781340;80;21183;-79
2021/03/28 06:23:22;;;;;;;26.55;14.98;;;;;;;7.51;76.33;101182.09;1781364;80;21298;-80
2021/03/28 06:27:08;;;;;;;31.30;17.87;;;;;;;7.53;77.19;101188.76;1781505;80;21252;-80
2021/03/28 06:30:46;;;;;;;31.10;19.00;;;;;;;7.60;77.04;101184.52;1779447;80;21765;-80
2021/03/28 06:34:34;;;;;;;31.20;19.45;;;;;;;7.72;76.16;101188.88;1781276;80;21195;-80
2021/03/28 06:37:57;;;;;;;30.37;19.50;;;;;;;7.80;74.45;101193.13;1781328;80;21745;-80
2021/03/28 06:41:20;;;;;;;28.52;18.57;;;;;;;7.91;74.67;101196.27;1781387;80;21302;-80
2021/03/28 06:45:04;;;;;;;26.97;15.20;;;;;;;7.99;74.32;101188.75;1781447;80;21256;-80
2021/03/28 06:48:35;;;;;;;33.73;17.10;;;;;;;8.05;73.54;101191.80;1781328;80;21930;-80
2021/03/28 06:52:22;;;;;;;35.40;19.52;;;;;;;8.13;73.38;101192.45;1781322;80;21849;-80
2021/03/28 06:55:52;;;;;;;27.62;17.62;;;;;;;8.22;73.19;101189.39;1781206;80;21283;-80
2021/03/28 06:59:34;;;;;;;28.73;18.52;;;;;;;8.30;72.87;101195.87;1781212;80;21801;-80
2021/03/28 07:02:57;;;;;;;22.62;14.63;;;;;;;8.37;72.59;101194.83;1781287;80;21299;-80
2021/03/28 07:06:36;;;;;;;24.20;15.75;;;;;;;8.45;71.18;101194.50;1781126;80;21148;-80
2021/03/28 07:09:56;;;;;;;20.37;14.25;;;;;;;8.42;69.83;101193.44;1809782;79;21798;-80
2021/03/28 07:13:20;;;;;;;;;;;;;;;8.42;70.35;101198.89;1812148;79;21722;-80
2021/03/28 07:16:49;;;;;;;19.07;13.10;;;;;;;8.52;70.78;101192.59;1809673;79;20184;-80
2021/03/28 07:20:08;;;;;;;23.10;13.97;;;;;;;8.62;70.83;101196.19;1810005;79;21809;-80
2021/03/28 07:24:06;;;;;;;20.25;12.70;;;;;;;8.73;69.32;101197.40;1809259;79;21311;-80
2021/03/28 07:27:46;;;;;;;20.75;12.53;;;;;;;8.86;68.75;101197.13;1809594;79;21323;-80
2021/03/28 07:31:11;;;;;;;19.67;13.18;;;;;;;8.98;67.45;101196.45;1809599;79;21801;-80
2021/03/28 07:34:46;;;;;;;23.40;13.08;;;;;;;9.02;67.85;101191.93;1809617;79;21291;-80
2021/03/28 07:38:10;;;;;;;21.15;13.38;;;;;;;9.07;67.19;101192.36;1809560;79;21303;-80
2021/03/28 07:41:31;;;;;;;21.95;14.45;;;;;;;9.13;67.34;101193.67;1809632;79;21192;-80
2021/03/28 07:45:14;;;;;;;20.80;13.03;;;;;;;9.18;66.63;101197.67;1809567;79;21331;-80
2021/03/28 07:48:59;;;;;;;24.70;13.98;;;;;;;9.25;66.60;101195.21;1809498;79;21295;-80
2021/03/28 07:52:26;;;;;;;25.50;14.53;;;;;;;9.34;66.19;101197.06;1809584;79;21333;-80
2021/03/28 07:55:34;;;;;;;20.95;12.70;;;;;;;9.42;65.87;101186.27;1809529;79;21331;-80
2021/03/28 07:58:56;;;;;;;23.00;13.45;;;;;;;9.51;65.81;101187.27;1809535;79;21307;-80
2021/03/28 08:02:37;;;;;;;23.62;13.10;;;;;;;9.65;65.17;101192.76;1807606;79;21303;-80
2021/03/28 08:06:17;;;;;;;;;;;;;;;9.66;65.18;101183.03;1812185;79;21271;-80
2021/03/28 08:09:43;;;;;;;24.10;14.53;;;;;;;9.80;64.95;101192.63;1806891;79;20188;-80
2021/03/28 08:13:24;;;;;;;28.83;16.73;;;;;;;9.95;65.18;101188.89;1809564;79;21216;-80
2021/03/28 08:17:06;;;;;;;24.10;15.00;;;;;;;10.13;66.30;101188.95;1809629;79;21300;-80
2021/03/28 08:21:04;;;;;;;22.22;13.88;;;;;;;10.34;67.46;101189.56;1739048;82;21295;-80
2021/03/28 08:24:31;;;;;;;27.90;17.27;;;;;;;10.55;65.94;101190.66;1807891;79;21262;-81
2021/03/28 08:28:08;;;;;;;32.03;17.57;;;;;;;10.67;65.99;101196.75;1809674;79;21172;-80
2021/03/28 08:31:40;;;;;;;32.95;18.12;;;;;;;10.79;64.68;101196.89;1766898;79;21148;-80
2021/03/28 08:35:21;;;;;;;47.03;24.05;;;;;;;10.83;63.32;101194.19;1755747;81;21310;-80
2021/03/28 08:38:37;;;;;;;26.45;16.23;;;;;;;10.91;62.99;101189.28;1738745;82;21306;-80
2021/03/28 08:42:13;;;;;;;27.15;17.02;;;;;;;10.97;62.88;101188.16;1752222;81;21290;-80
2021/03/28 08:45:40;;;;;;;35.98;19.87;;;;;;;11.04;62.44;101184.78;1738848;82;21195;-81
2021/03/28 08:49:22;;;;;;;27.80;16.12;;;;;;;11.15;63.10;101181.78;1755032;81;21840;-80
2021/03/28 08:53:14;;;;;;;28.52;17.07;;;;;;;11.29;62.95;101178.98;1727143;81;21313;-80
2021/03/28 08:56:38;;;;;;;27.40;17.23;;;;;;;11.43;63.18;101178.41;1738321;82;21342;-80
2021/03/28 09:00:06;;;;;;;22.93;15.70;;;;;;;11.57;62.28;101172.33;1755701;81;21192;-80
2021/03/28 09:03:44;;;;;;;41.02;19.60;;;;;;;11.68;61.64;101173.95;1738893;82;21239;-80
2021/03/28 09:07:19;;;;;;;33.00;18.57;;;;;;;11.77;61.57;101173.84;1755046;81;21286;-80
2021/03/28 09:11:07;;;;;;;30.30;19.87;;;;;;;11.84;59.73;101171.84;1736888;82;21184;-80
2021/03/28 09:14:47;;;;;;;39.08;22.40;;;;;;;11.90;61.54;101164.31;1685979;85;21317;-80
2021/03/28 09:18:02;;;;;;;32.78;20.68;;;;;;;12.01;61.38;101164.90;1695136;82;21808;-80
2021/03/28 09:21:36;;;;;;;37.88;21.97;;;;;;;12.09;60.04;101164.56;1729282;83;21241;-80
2021/03/28 09:25:01;;;;;;;34.48;20.82;;;;;;;12.12;58.84;101164.25;1750565;82;22268;-80
2021/03/28 09:28:46;;;;;;;36.77;22.05;;;;;;;12.16;59.68;101162.38;1729242;83;21829;-80
2021/03/28 09:32:06;;;;;;;33.53;22.77;;;;;;;12.22;60.10;101160.34;1750647;82;21373;-80
2021/03/28 09:35:45;;;;;;;36.80;22.42;;;;;;;12.28;59.93;101159.69;1723413;82;21271;-80
2021/03/28 09:39:31;;;;;;;38.63;24.40;;;;;;;12.35;59.47;101146.16;1753536;82;21746;-80
2021/03/28 09:43:12;;;;;;;37.70;23.83;;;;;;;12.45;59.18;101148.23;1672940;84;21370;-80
2021/03/28 09:46:56;;;;;;;36.70;20.62;;;;;;;12.56;59.04;101139.33;1652762;82;21318;-80
2021/03/28 09:50:29;;;;;;;39.90;26.37;;;;;;;12.62;57.37;101135.92;1753760;82;21156;-80
2021/03/28 09:54:13;;;;;;;40.12;25.10;;;;;;;12.63;56.24;101136.27;1753683;82;21180;-80
2021/03/28 09:57:52;;;;;;;36.45;24.52;;;;;;;12.65;55.31;101131.45;1753477;82;21208;-80
2021/03/28 10:01:20;;;;;;;45.38;25.68;;;;;;;12.70;55.47;101126.30;1753600;82;21290;-80
2021/03/28 10:05:09;;;;;;;35.20;22.40;;;;;;;12.76;55.55;101125.64;1753751;82;21267;-80
2021/03/28 10:08:27;;;;;;;44.48;26.12;;;;;;;12.85;55.58;101121.87;1753678;82;21235;-80
2021/03/28 10:11:57;;;;;;;38.28;24.50;;;;;;;12.94;55.10;101116.73;1751578;80;21186;-80
2021/03/28 10:15:30;;;;;;;43.28;28.83;;;;;;;13.04;54.30;101112.42;1752709;82;21290;-80
2021/03/28 10:18:49;;;;;;;33.95;24.20;;;;;;;13.13;54.56;101107.79;1779455;80;21266;-79
2021/03/28 10:22:21;;;;;;;35.43;24.63;;;;;;;13.22;54.34;101108.12;1778964;80;21304;-79
2021/03/28 10:26:03;;;;;;;42.00;26.68;;;;;;;13.32;52.51;101102.47;1777673;80;21312;-79
2021/03/28 10:29:31;;;;;;;28.98;18.95;;;;;;;13.42;52.94;101104.50;1777660;80;21831;-80
2021/03/28 10:33:03;;;;;;;31.62;19.67;;;;;;;13.48;48.15;101112.88;1785573;80;22253;-80
2021/03/28 10:36:34;;;;;;;31.87;20.60;;;;;;;13.51;46.90;101104.30;1785653;80;21340;-80
2021/03/28 10:40:03;;;;;;;24.75;16.05;;;;;;;13.57;46.71;101103.25;1781602;80;21203;-79
2021/03/28 10:43:27;;;;;;;;;;;;;;;13.66;46.40;101087.92;1755362;82;21253;-79
2021/03/28 10:47:00;;;;;;;28.52;17.82;;;;;;;13.79;41.28;101104.72;1752888;82;20204;-79
2021/03/28 10:50:45;;;;;;;30.97;16.55;;;;;;;13.80;42.66;101098.70;1753897;82;21281;-79
2021/03/28 10:54:42;;;;;;;25.68;18.60;;;;;;;13.78;43.30;101100.27;1754566;82;21811;-79
2021/03/28 10:58:40;;;;;;;26.87;16.65;;;;;;;13.86;44.11;101096.59;1753963;82;21845;-80
2021/03/28 11:02:25;;;;;;;23.25;15.35;;;;;;;13.89;42.63;101098.15;1753672;82;21934;-80
2021/03/28 11:05:51;;;;;;;22.90;14.10;;;;;;;13.69;40.99;101093.56;1753865;82;21845;-79
2021/03/28 11:09:13;;;;;;;19.35;13.65;;;;;;;13.53;41.17;101092.59;1753811;82;21355;-79
2021/03/28 11:12:34;;;;;;;21.90;14.30;;;;;;;13.60;41.68;101090.50;1745568;82;21345;-79
2021/03/28 11:15:57;;;;;;;23.62;14.15;;;;;;;13.70;38.21;101085.16;1706017;82;21790;-80
2021/03/28 11:19:53;;;;;;;89.17;53.58;;;;;;;13.75;37.79;101078.61;1754529;82;21362;-80
2021/03/28 11:23:10;;;;;;;30.80;16.60;;;;;;;13.79;38.79;101079.12;1754412;82;21320;-79
2021/03/28 11:26:56;;;;;;;21.33;14.75;;;;;;;13.80;35.49;101084.42;1752566;82;21201;-80
2021/03/28 11:30:35;;;;;;;25.35;16.40;;;;;;;13.84;36.14;101075.31;1752537;82;21198;-80
2021/03/28 11:33:54;;;;;;;49.93;28.65;;;;;;;13.85;37.13;101080.29;1754050;82;21299;-79
2021/03/28 11:37:47;;;;;;;36.63;22.85;;;;;;;13.87;38.62;101076.83;1753635;82;21205;-79
2021/03/28 11:41:20;;;;;;;28.55;20.00;;;;;;;13.87;39.13;101077.68;1752382;82;21343;-80
2021/03/28 11:44:42;;;;;;;22.27;14.90;;;;;;;13.72;40.83;101076.73;1752311;82;21742;-80
2021/03/28 11:47:59;;;;;;;27.90;16.85;;;;;;;13.43;36.68;101089.72;1752614;82;21335;-79
2021/03/28 11:51:21;;;;;;;35.40;20.57;;;;;;;13.13;37.23;101093.53;1754018;82;21441;-79
2021/03/28 11:54:29;;;;;;;32.17;21.25;;;;;;;12.92;39.51;101094.05;1743914;80;21653;-79
2021/03/28 11:57:39;;;;;;;50.95;26.87;;;;;;;12.75;42.23;101088.22;1784155;80;21782;-79
2021/03/28 12:01:00;;;;;;;51.70;29.05;;;;;;;12.66;43.06;101086.53;1784947;80;21765;-79
2021/03/28 12:04:19;;;;;;;38.50;22.80;;;;;;;12.66;42.92;101081.04;1784902;80;21295;-79
2021/03/28 12:07:42;;;;;;;48.40;27.30;;;;;;;12.72;43.90;101077.08;1758668;80;21200;-79
2021/03/28 12:10:47;;;;;;;43.38;22.48;;;;;;;12.79;42.87;101074.49;1784853;80;21801;-79
2021/03/28 12:13:55;;;;;;;30.37;19.17;;;;;;;12.91;43.35;101069.00;1778326;80;21295;-79
2021/03/28 12:17:21;;;;;;;46.03;25.03;;;;;;;12.99;44.23;101071.75;1777630;80;21192;-79
2021/03/28 12:20:30;;;;;;;40.12;20.05;;;;;;;13.09;43.64;101069.34;1779109;80;21280;-79
2021/03/28 12:23:57;;;;;;;41.58;21.57;;;;;;;13.21;43.18;101066.55;1778936;80;21363;-79
2021/03/28 12:27:02;;;;;;;61.68;28.83;;;;;;;13.25;43.19;101064.68;1778888;80;21188;-79
2021/03/28 12:30:09;;;;;;;35.25;20.43;;;;;;;13.33;43.41;101062.96;1778916;80;21141;-79
2021/03/28 12:33:23;;;;;;;30.25;19.85;;;;;;;13.41;42.13;101051.92;1778812;80;21177;-79
2021/03/28 12:36:28;;;;;;;29.80;19.75;;;;;;;13.49;41.39;101051.90;1779007;80;21335;-79
2021/03/28 12:39:40;;;;;;;27.70;17.85;;;;;;;13.54;42.58;101055.83;1777368;80;21231;-79
2021/03/28 12:42:48;;;;;;;;;;;;;;;13.55;40.41;101048.47;1781737;80;21294;-79
2021/03/28 12:45:53;;;;;;;24.98;17.52;;;;;;;13.56;38.67;101048.80;1778962;80;20254;-80
2021/03/28 12:49:21;;;;;;;31.17;18.65;;;;;;;13.52;37.66;101049.66;1778738;80;21272;-80
2021/03/28 12:52:36;;;;;;;27.20;16.95;;;;;;;13.53;37.55;101046.39;1778947;80;21865;-79
2021/03/28 12:55:53;;;;;;;28.95;18.00;;;;;;;13.51;38.78;101047.10;1778972;80;21267;-79
2021/03/28 12:58:59;;;;;;;23.50;15.90;;;;;;;13.45;37.14;101042.30;1777196;80;21235;-79
2021/03/28 13:02:24;;;;;;;43.68;21.77;;;;;;;13.39;38.12;101042.48;1778842;80;21751;-79
2021/03/28 13:05:39;;;;;;;65.00;27.13;;;;;;;13.40;39.89;101044.20;1778927;80;21275;-79
2021/03/28 13:09:00;;;;;;;54.93;24.25;;;;;;;13.37;39.03;101045.95;1777312;80;21813;-79
2021/03/28 13:12:19;;;;;;;31.37;17.48;;;;;;;13.30;39.82;101047.15;1779163;80;21302;-78
2021/03/28 13:15:55;;;;;;;64.20;27.37;;;;;;;13.21;39.47;101048.17;1782097;80;21298;-79
2021/03/28 13:19:01;;;;;;;148.68;66.20;;;;;;;13.13;39.46;101039.12;1782007;80;21291;-79
2021/03/28 13:22:28;;;;;;;151.37;54.25;;;;;;;13.07;39.17;101039.80;1780640;80;21228;-79
2021/03/28 13:25:38;;;;;;;134.60;51.68;;;;;;;13.01;40.48;101041.36;1782115;80;21270;-79
2021/03/28 13:28:46;;;;;;;51.50;23.92;;;;;;;12.94;41.60;101038.47;1779778;80;21761;-79
2021/03/28 13:32:05;;;;;;;33.70;20.80;;;;;;;12.87;42.67;101042.92;1780603;80;21235;-79
2021/03/28 13:35:29;;;;;;;41.58;23.95;;;;;;;12.75;43.24;101042.44;1782235;80;21280;-79
2021/03/28 13:38:38;;;;;;;30.57;20.17;;;;;;;12.62;42.44;101042.61;1781187;80;21180;-79
2021/03/28 13:41:46;;;;;;;29.52;19.25;;;;;;;12.49;42.27;101039.85;1782183;80;21260;-79
2021/03/28 13:45:05;;;;;;;32.73;20.65;;;;;;;12.39;44.66;101043.28;1782236;80;21793;-79
2021/03/28 13:48:21;;;;;;;37.42;23.15;;;;;;;12.28;45.63;101040.37;1782222;80;21287;-79
2021/03/28 13:51:33;;;;;;;31.80;20.37;;;;;;;12.17;45.82;101043.94;1782262;80;21294;-78
2021/03/28 13:54:38;;;;;;;32.70;18.42;;;;;;;12.08;45.71;101039.46;1782362;80;21272;-78
2021/03/28 13:57:48;;;;;;;38.63;22.73;;;;;;;11.99;45.24;101036.69;1780709;80;21208;-78
2021/03/28 14:00:57;;;;;;;37.85;21.35;;;;;;;11.94;45.46;101037.71;1782260;80;21278;-79
2021/03/28 14:03:58;;;;;;;33.80;18.92;;;;;;;11.90;45.82;101032.25;1782165;80;21826;-78
2021/03/28 14:07:29;;;;;;;30.77;19.95;;;;;;;11.87;46.17;101039.94;1782287;80;21325;-79
2021/03/28 14:10:45;;;;;;;32.23;18.67;;;;;;;11.82;46.92;101036.33;1777822;80;21135;-79
2021/03/28 14:13:55;;;;;;;26.23;17.23;;;;;;;11.77;47.84;101031.83;1781689;80;21163;-78
2021/03/28 14:17:05;;;;;;;30.50;17.42;;;;;;;11.72;48.69;101035.06;1778109;80;21286;-79
2021/03/28 14:20:22;;;;;;;35.45;19.52;;;;;;;11.69;49.06;101031.28;1775785;80;21160;-78
2021/03/28 14:23:34;;;;;;;35.50;18.40;;;;;;;11.65;49.54;101030.41;1777358;80;21207;-78
2021/03/28 14:26:51;;;;;;;23.10;15.32;;;;;;;11.60;49.64;101027.31;1778868;80;21160;-78
2021/03/28 14:30:25;;;;;;;21.82;12.85;;;;;;;11.57;49.49;101027.11;1775466;80;21307;-78
2021/03/28 14:33:33;;;;;;;18.23;11.97;;;;;;;11.55;48.37;101025.58;1778873;80;21307;-78
2021/03/28 14:37:21;;;;;;;18.82;11.68;;;;;;;11.49;47.59;101018.38;1778898;80;21157;-78
2021/03/28 14:41:07;;;;;;;17.55;10.88;;;;;;;11.47;46.55;101024.50;1778920;80;22113;-78
2021/03/28 14:44:41;;;;;;;17.15;11.05;;;;;;;11.44;45.59;101024.00;1751319;80;21283;-78
2021/03/28 14:48:29;;;;;;;20.25;11.25;;;;;;;11.41;44.94;101024.32;1778882;80;21298;-78
2021/03/28 14:51:39;;;;;;;18.10;10.75;;;;;;;11.41;44.31;101025.69;1778836;80;21707;-78
2021/03/28 14:54:44;;;;;;;16.00;10.80;;;;;;;11.40;44.13;101028.94;1778926;80;21291;-78
2021/03/28 14:57:57;;;;;;;15.13;10.40;;;;;;;11.42;44.30;101028.77;1730401;80;21315;-78
2021/03/28 15:01:19;;;;;;;14.83;10.80;;;;;;;11.45;44.22;101033.92;1778888;80;21825;-78
2021/03/28 15:05:06;;;;;;;15.45;10.18;;;;;;;11.45;43.72;101026.56;1778842;80;21980;-78
2021/03/28 15:08:39;;;;;;;14.38;9.90;;;;;;;11.46;43.53;101035.12;1778894;80;21294;-78
2021/03/28 15:11:49;;;;;;;15.08;10.38;;;;;;;11.47;43.88;101039.57;1785694;80;21737;-78
2021/03/28 15:15:05;;;;;;;17.12;10.82;;;;;;;11.47;44.48;101037.34;1754515;81;21319;-78
2021/03/28 15:18:33;;;;;;;30.05;14.35;;;;;;;11.44;45.32;101038.55;1778858;80;21303;-78
2021/03/28 15:21:50;;;;;;;30.45;16.65;;;;;;;11.39;46.00;101030.48;1777399;80;21224;-78
2021/03/28 15:25:17;;;;;;;25.45;16.67;;;;;;;11.31;49.20;101034.55;1777377;80;21280;-78
2021/03/28 15:28:36;;;;;;;29.70;17.65;;;;;;;11.15;51.47;101040.77;1778973;80;21196;-78
2021/03/28 15:32:18;;;;;;;28.30;17.57;;;;;;;10.93;52.22;101033.47;1778990;80;21271;-78
2021/03/28 15:35:34;;;;;;;27.17;16.95;;;;;;;10.75;52.81;101034.03;1778853;80;21357;-78
2021/03/28 15:39:19;;;;;;;28.23;18.07;;;;;;;10.56;53.84;101039.70;1778956;80;21848;-78
2021/03/28 15:42:52;;;;;;;25.45;18.15;;;;;;;10.42;54.83;101041.11;1778947;80;21840;-78
2021/03/28 15:46:06;;;;;;;25.52;17.67;;;;;;;10.26;55.93;101042.31;1778996;80;21319;-78
2021/03/28 15:49:36;;;;;;;27.85;17.02;;;;;;;10.14;56.30;101049.88;1764593;80;21164;-78
2021/03/28 15:53:08;;;;;;;24.75;16.93;;;;;;;10.07;56.62;101044.19;1778936;80;21180;-78